createdAt,value
2023-02-08T00:01:51.013Z,99.90
2023-02-08T00:04:19.292Z,99.90
2023-02-08T00:06:47.741Z,99.90
2023-02-08T00:09:16.116Z,99.90
2023-02-08T00:11:44.187Z,99.90
2023-02-08T00:14:12.983Z,99.90
2023-02-08T00:16:42.965Z,99.90
2023-02-08T00:19:11.518Z,99.90
2023-02-08T00:21:39.541Z,99.90
2023-02-08T00:24:08.405Z,99.90
2023-02-08T00:26:36.418Z,99.90
2023-02-08T00:29:05.270Z,99.90
2023-02-08T00:31:37.175Z,99.90
2023-02-08T00:34:06.962Z,99.90
2023-02-08T00:36:37.598Z,99.90
2023-02-08T00:39:06.796Z,99.90
2023-02-08T00:41:34.930Z,99.90
2023-02-08T00:44:03.964Z,99.90
2023-02-08T00:46:34.339Z,99.90
2023-02-08T00:49:02.500Z,99.90
2023-02-08T00:51:32.287Z,99.90
2023-02-08T00:54:01.209Z,99.90
2023-02-08T00:56:29.306Z,99.90
2023-02-08T00:59:01.172Z,99.90
2023-02-08T01:01:30.053Z,99.90
2023-02-08T01:03:58.590Z,99.90
2023-02-08T01:06:27.455Z,99.90
2023-02-08T01:09:01.079Z,99.90
2023-02-08T01:11:29.575Z,99.90
2023-02-08T01:13:59.702Z,99.90
2023-02-08T01:16:29.835Z,99.90
2023-02-08T01:19:00.568Z,99.90
2023-02-08T01:21:30.786Z,99.90
2023-02-08T01:24:02.057Z,99.90
2023-02-08T01:26:32.633Z,99.90
2023-02-08T01:29:01.736Z,99.90
2023-02-08T01:31:32.643Z,99.90
2023-02-08T01:34:04.349Z,99.90
2023-02-08T01:36:34.854Z,99.90
2023-02-08T01:39:05.979Z,99.90
2023-02-08T01:41:38.056Z,99.90
2023-02-08T01:44:10.177Z,99.90
2023-02-08T01:46:40.359Z,99.90
2023-02-08T01:49:13.017Z,99.90
2023-02-08T01:51:46.313Z,99.90
2023-02-08T01:54:19.154Z,99.90
2023-02-08T01:56:49.735Z,99.90
2023-02-08T01:59:26.688Z,99.90
2023-02-08T02:01:57.501Z,99.90
2023-02-08T02:04:27.248Z,99.90
2023-02-08T02:06:59.193Z,99.90
2023-02-08T02:09:33.034Z,99.90
2023-02-08T02:12:01.982Z,99.90
2023-02-08T02:14:30.928Z,99.90
2023-02-08T02:17:02.071Z,99.90
2023-02-08T02:19:38.874Z,99.90
2023-02-08T02:22:29.087Z,99.90
2023-02-08T02:25:19.534Z,99.90
2023-02-08T02:28:30.559Z,99.90
2023-02-08T02:31:22.413Z,99.90
2023-02-08T02:34:03.030Z,99.90
2023-02-08T02:36:52.273Z,99.90
2023-02-08T02:39:30.459Z,99.90
2023-02-08T02:42:24.084Z,99.90
2023-02-08T02:44:59.359Z,99.90
2023-02-08T02:47:33.056Z,99.90
2023-02-08T02:50:09.153Z,99.90
2023-02-08T02:52:46.411Z,99.90
2023-02-08T02:55:21.869Z,99.90
2023-02-08T02:57:55.094Z,99.90
2023-02-08T03:00:26.713Z,99.90
2023-02-08T03:02:56.487Z,99.90
2023-02-08T03:05:28.290Z,99.90
2023-02-08T03:08:17.941Z,99.90
2023-02-08T03:11:08.872Z,99.90
2023-02-08T03:14:11.869Z,99.90
2023-02-08T03:16:58.103Z,99.90
2023-02-08T03:19:33.038Z,99.90
2023-02-08T03:22:08.170Z,99.90
2023-02-08T03:24:43.696Z,99.90
2023-02-08T03:27:22.123Z,99.90
2023-02-08T03:30:02.295Z,99.90
2023-02-08T03:32:39.865Z,99.90
2023-02-08T03:35:13.717Z,99.90
2023-02-08T03:37:50.624Z,99.90
2023-02-08T03:40:32.334Z,99.90
2023-02-08T03:43:06.143Z,99.90
2023-02-08T03:45:41.571Z,99.90
2023-02-08T03:48:15.542Z,99.90
2023-02-08T03:50:47.067Z,99.90
2023-02-08T03:53:21.336Z,99.90
2023-02-08T03:55:54.533Z,99.90
2023-02-08T03:58:40.139Z,99.90
2023-02-08T04:01:14.251Z,99.90
2023-02-08T04:03:45.105Z,99.90
2023-02-08T04:06:16.172Z,99.90
2023-02-08T04:08:45.513Z,99.90
2023-02-08T04:11:14.448Z,99.90
2023-02-08T04:13:42.442Z,99.90
2023-02-08T04:16:13.003Z,99.90
2023-02-08T04:18:40.976Z,99.90
2023-02-08T04:21:09.944Z,99.90
2023-02-08T04:23:37.917Z,99.90
2023-02-08T04:26:08.755Z,99.90
2023-02-08T04:28:36.856Z,99.90
2023-02-08T04:31:05.041Z,99.90
2023-02-08T04:33:33.705Z,99.90
2023-02-08T04:36:01.704Z,99.90
2023-02-08T04:38:30.711Z,99.90
2023-02-08T04:40:58.745Z,99.90
2023-02-08T04:43:28.546Z,99.90
2023-02-08T04:45:58.152Z,99.90
2023-02-08T04:48:26.604Z,99.90
2023-02-08T04:50:57.450Z,99.90
2023-02-08T04:53:26.836Z,99.90
2023-02-08T04:55:55.438Z,99.90
2023-02-08T04:58:26.155Z,99.90
2023-02-08T05:00:56.206Z,99.90
2023-02-08T05:03:24.699Z,99.90
2023-02-08T05:05:58.467Z,99.90
2023-02-08T05:08:28.317Z,99.90
2023-02-08T05:10:56.426Z,99.90
2023-02-08T05:13:25.400Z,99.90
2023-02-08T05:15:53.953Z,99.90
2023-02-08T05:18:24.850Z,99.90
2023-02-08T05:20:57.244Z,99.90
2023-02-08T05:23:27.285Z,99.90
2023-02-08T05:25:55.339Z,99.90
2023-02-08T05:28:23.864Z,99.90
2023-02-08T05:30:53.221Z,99.90
2023-02-08T05:33:24.560Z,99.90
2023-02-08T05:35:57.110Z,99.90
2023-02-08T05:38:25.532Z,99.90
2023-02-08T05:40:54.026Z,99.90
2023-02-08T05:43:22.029Z,99.90
2023-02-08T05:45:53.168Z,99.90
2023-02-08T05:48:21.416Z,99.90
2023-02-08T05:50:49.856Z,99.90
2023-02-08T05:53:21.156Z,99.90
2023-02-08T05:55:50.036Z,99.90
2023-02-08T05:58:18.908Z,99.90
2023-02-08T06:00:47.035Z,99.90
2023-02-08T06:03:16.192Z,99.90
2023-02-08T06:05:46.458Z,99.90
2023-02-08T06:08:14.441Z,99.90
2023-02-08T06:10:46.201Z,99.90
2023-02-08T06:13:14.185Z,99.90
2023-02-08T06:15:45.201Z,99.90
2023-02-08T06:18:13.222Z,99.90
2023-02-08T06:20:41.780Z,99.90
2023-02-08T06:23:09.945Z,99.90
2023-02-08T06:25:39.532Z,99.90
2023-02-08T06:28:10.572Z,99.90
2023-02-08T06:30:39.171Z,99.90
2023-02-08T06:33:08.221Z,99.90
2023-02-08T06:35:40.178Z,99.90
2023-02-08T06:38:08.596Z,99.90
2023-02-08T06:40:38.224Z,99.90
2023-02-08T06:43:08.053Z,99.90
2023-02-08T06:45:36.038Z,99.90
2023-02-08T06:48:05.419Z,99.90
2023-02-08T06:50:33.810Z,99.90
2023-02-08T06:53:02.224Z,99.90
2023-02-08T06:55:30.660Z,99.90
2023-02-08T06:57:58.637Z,99.90
2023-02-08T07:00:28.553Z,99.90
2023-02-08T07:02:56.522Z,99.90
2023-02-08T07:05:24.945Z,99.90
2023-02-08T07:07:56.201Z,99.90
2023-02-08T07:10:24.217Z,99.90
2023-02-08T07:12:55.855Z,99.90
2023-02-08T07:15:23.853Z,99.90
2023-02-08T07:17:53.200Z,99.90
2023-02-08T07:20:22.948Z,99.90
2023-02-08T07:22:50.972Z,99.90
2023-02-08T07:25:19.154Z,99.90
2023-02-08T07:27:47.164Z,99.90
2023-02-08T07:30:15.560Z,99.90
2023-02-08T07:32:44.032Z,99.90
2023-02-08T07:35:13.470Z,99.90
2023-02-08T07:37:41.529Z,99.90
2023-02-08T07:40:10.586Z,99.90
2023-02-08T07:42:38.805Z,99.90
2023-02-08T07:45:18.142Z,99.90
2023-02-08T07:47:47.738Z,99.90
2023-02-08T07:50:17.563Z,99.90
2023-02-08T07:52:47.366Z,99.90
2023-02-08T07:55:16.983Z,99.90
2023-02-08T07:57:45.537Z,99.90
2023-02-08T08:00:16.416Z,99.90
2023-02-08T08:02:47.365Z,99.90
2023-02-08T08:05:17.423Z,99.90
2023-02-08T08:07:46.310Z,99.90
2023-02-08T08:10:14.789Z,99.90
2023-02-08T08:12:42.788Z,99.90
2023-02-08T08:15:12.481Z,99.90
2023-02-08T08:17:42.091Z,99.90
2023-02-08T08:20:11.979Z,99.90
2023-02-08T08:22:41.506Z,99.90
2023-02-08T08:25:10.042Z,99.90
2023-02-08T08:27:38.550Z,99.90
2023-02-08T08:30:08.305Z,99.90
2023-02-08T08:32:38.961Z,99.90
2023-02-08T08:35:08.434Z,99.90
2023-02-08T08:37:39.228Z,99.90
2023-02-08T08:40:10.079Z,99.90
2023-02-08T08:42:42.120Z,99.90
2023-02-08T08:45:11.404Z,99.90
2023-02-08T08:47:39.404Z,99.90
2023-02-08T08:50:08.133Z,99.90
2023-02-08T08:52:36.627Z,99.90
2023-02-08T08:55:05.120Z,99.90
2023-02-08T08:57:34.436Z,99.90
2023-02-08T09:00:03.815Z,99.90
2023-02-08T09:02:32.389Z,99.90
2023-02-08T09:05:02.531Z,99.90
2023-02-08T09:07:30.633Z,99.90
2023-02-08T09:09:58.652Z,99.90
2023-02-08T09:12:28.684Z,99.90
2023-02-08T09:15:00.743Z,99.90
2023-02-08T09:17:28.763Z,99.90
2023-02-08T09:19:58.254Z,99.90
2023-02-08T09:22:26.306Z,99.90
2023-02-08T09:24:54.788Z,99.90
2023-02-08T09:27:23.504Z,99.90
2023-02-08T09:29:51.573Z,99.90
2023-02-08T09:32:21.231Z,99.90
2023-02-08T09:34:50.778Z,99.90
2023-02-08T09:37:21.489Z,99.30
2023-02-08T09:39:51.016Z,99.30
2023-02-08T09:42:49.373Z,99.60
2023-02-08T09:45:59.386Z,99.20
2023-02-08T09:48:33.615Z,98.80
2023-02-08T09:51:07.936Z,98.50
2023-02-08T09:53:40.449Z,97.70
2023-02-08T09:56:18.594Z,97.30
2023-02-08T09:58:49.896Z,96.10
2023-02-08T10:01:22.319Z,96.30
2023-02-08T10:03:58.290Z,96.40
2023-02-08T10:06:27.891Z,94.90
2023-02-08T10:08:56.181Z,94.40
2023-02-08T10:11:48.788Z,93.70
2023-02-08T10:14:36.776Z,93.20
2023-02-08T10:17:16.870Z,92.40
2023-02-08T10:20:00.798Z,90.80
2023-02-08T10:22:39.137Z,89.20
2023-02-08T10:25:55.361Z,86.40
2023-02-08T10:28:41.785Z,78.70
2023-02-08T10:31:17.869Z,78.30
2023-02-08T10:33:55.468Z,75.60
2023-02-08T10:36:33.678Z,72.70
2023-02-08T10:39:05.181Z,67.40
2023-02-08T10:41:38.291Z,67.90
2023-02-08T10:44:15.310Z,69.60
2023-02-08T10:46:48.539Z,68.20
2023-02-08T10:49:24.300Z,67.80
2023-02-08T10:51:54.813Z,68.40
2023-02-08T10:54:23.009Z,68.80
2023-02-08T10:56:57.372Z,68.00
2023-02-08T10:59:33.075Z,65.00
2023-02-08T11:02:01.728Z,64.30
2023-02-08T11:04:30.759Z,62.90
2023-02-08T11:07:22.301Z,63.10
2023-02-08T11:09:50.799Z,63.10
2023-02-08T11:12:22.163Z,61.80
2023-02-08T11:14:53.969Z,58.60
2023-02-08T11:17:30.538Z,57.00
2023-02-08T11:20:00.810Z,57.90
2023-02-08T11:22:34.458Z,57.40
2023-02-08T11:25:06.580Z,58.80
2023-02-08T11:27:40.804Z,57.50
2023-02-08T11:30:33.668Z,59.10
2023-02-08T11:33:20.390Z,56.90
2023-02-08T11:36:06.235Z,55.30
2023-02-08T11:38:37.655Z,53.30
2023-02-08T11:41:16.565Z,50.30
2023-02-08T11:43:54.160Z,49.60
2023-02-08T11:46:25.147Z,47.80
2023-02-08T11:48:55.382Z,44.70
2023-02-08T11:51:29.792Z,43.00
2023-02-08T11:54:00.927Z,39.40
2023-02-08T11:56:31.021Z,38.60
2023-02-08T11:59:09.482Z,38.60
2023-02-08T12:01:39.799Z,38.20
2023-02-08T12:04:15.674Z,37.50
2023-02-08T12:07:09.702Z,35.60
2023-02-08T12:10:11.907Z,34.70
2023-02-08T12:12:57.934Z,33.10
2023-02-08T12:15:48.109Z,32.50
2023-02-08T12:18:47.334Z,32.20
2023-02-08T12:21:20.228Z,31.50
2023-02-08T12:23:56.192Z,30.90
2023-02-08T12:26:44.252Z,31.00
2023-02-08T12:29:47.836Z,30.80
2023-02-08T12:32:50.370Z,30.60
2023-02-08T12:36:04.040Z,29.60
2023-02-08T12:39:26.133Z,28.50
2023-02-08T12:42:30.060Z,28.00
2023-02-08T12:45:32.876Z,29.00
2023-02-08T12:48:20.889Z,28.60
2023-02-08T12:50:55.667Z,28.50
2023-02-08T12:53:30.826Z,28.50
2023-02-08T12:56:03.516Z,27.70
2023-02-08T12:58:35.991Z,27.50
2023-02-08T13:01:12.394Z,27.90
2023-02-08T13:03:50.584Z,27.80
2023-02-08T13:06:23.359Z,27.80
2023-02-08T13:08:56.826Z,27.20
2023-02-08T13:11:33.732Z,27.00
2023-02-08T13:14:05.913Z,26.30
2023-02-08T13:16:42.164Z,26.90
2023-02-08T13:19:25.970Z,26.80
2023-02-08T13:21:55.565Z,26.50
2023-02-08T13:24:35.169Z,26.90
2023-02-08T13:27:07.301Z,26.70
2023-02-08T13:29:36.522Z,25.80
2023-02-08T13:32:11.312Z,26.70
2023-02-08T13:34:45.621Z,27.20
2023-02-08T13:37:25.693Z,26.90
2023-02-08T13:40:01.195Z,26.90
2023-02-08T13:42:32.387Z,26.50
2023-02-08T13:45:02.115Z,26.60
2023-02-08T13:47:34.621Z,26.00
2023-02-08T13:50:07.320Z,25.60
2023-02-08T13:52:51.280Z,26.70
2023-02-08T13:55:46.268Z,26.80
2023-02-08T13:58:31.451Z,26.70
2023-02-08T14:01:17.318Z,26.30
2023-02-08T14:04:33.375Z,26.20
2023-02-08T14:07:15.525Z,26.30
2023-02-08T14:10:13.944Z,26.70
2023-02-08T14:12:47.124Z,25.70
2023-02-08T14:15:38.401Z,26.20
2023-02-08T14:18:23.568Z,26.50
2023-02-08T14:21:07.185Z,26.40
2023-02-08T14:23:40.713Z,26.30
2023-02-08T14:26:16.644Z,26.80
2023-02-08T14:28:49.163Z,26.80
2023-02-08T14:31:22.995Z,27.20
2023-02-08T14:33:58.454Z,27.20
2023-02-08T14:36:31.733Z,27.60
2023-02-08T14:39:27.460Z,28.30
2023-02-08T14:42:04.325Z,28.80
2023-02-08T14:45:12.377Z,29.40
2023-02-08T14:48:15.214Z,29.70
2023-02-08T14:50:56.160Z,30.00
2023-02-08T14:53:35.305Z,30.80
2023-02-08T14:56:24.180Z,31.10
2023-02-08T14:59:00.706Z,32.00
2023-02-08T15:01:44.115Z,32.10
2023-02-08T15:04:13.129Z,32.50
2023-02-08T15:07:23.680Z,32.80
2023-02-08T15:09:53.390Z,32.80
2023-02-08T15:12:39.595Z,33.00
2023-02-08T15:15:21.785Z,33.20
2023-02-08T15:17:52.208Z,33.50
2023-02-08T15:20:24.490Z,33.50
2023-02-08T15:22:59.967Z,34.00
2023-02-08T15:25:34.489Z,34.10
2023-02-08T15:28:05.412Z,34.00
2023-02-08T15:30:37.026Z,33.90
2023-02-08T15:33:10.297Z,33.80
2023-02-08T15:35:38.459Z,34.10
2023-02-08T15:38:13.132Z,34.20
2023-02-08T15:40:42.986Z,34.40
2023-02-08T15:43:15.604Z,34.70
2023-02-08T15:45:44.800Z,34.90
2023-02-08T15:48:13.457Z,35.00
2023-02-08T15:50:41.965Z,35.00
2023-02-08T15:53:15.285Z,35.10
2023-02-08T15:55:51.152Z,35.60
2023-02-08T15:58:28.734Z,36.40
2023-02-08T16:01:01.636Z,36.30
2023-02-08T16:03:30.894Z,36.40
2023-02-08T16:06:01.977Z,36.40
2023-02-08T16:08:33.477Z,35.70
2023-02-08T16:11:09.673Z,35.60
2023-02-08T16:13:42.460Z,35.90
2023-02-08T16:16:19.681Z,36.00
2023-02-08T16:18:50.491Z,36.10
2023-02-08T16:21:30.685Z,36.40
2023-02-08T16:24:01.322Z,36.70
2023-02-08T16:26:35.401Z,36.70
2023-02-08T16:29:07.215Z,36.90
2023-02-08T16:31:37.396Z,37.30
2023-02-08T16:34:08.233Z,37.70
2023-02-08T16:36:42.197Z,37.90
2023-02-08T16:39:40.102Z,38.10
2023-02-08T16:42:27.635Z,38.60
2023-02-08T16:45:02.305Z,39.20
2023-02-08T16:47:37.676Z,39.40
2023-02-08T16:50:07.544Z,39.30
2023-02-08T16:52:35.802Z,39.30
2023-02-08T16:55:05.530Z,39.00
2023-02-08T16:57:43.639Z,38.90
2023-02-08T17:00:19.561Z,39.20
2023-02-08T17:02:47.725Z,39.40
2023-02-08T17:05:18.012Z,39.70
2023-02-08T17:07:46.532Z,39.90
2023-02-08T17:10:20.636Z,40.10
2023-02-08T17:12:50.520Z,40.00
2023-02-08T17:15:20.837Z,39.70
2023-02-08T17:17:52.032Z,40.00
2023-02-08T17:20:22.461Z,39.90
2023-02-08T17:22:51.585Z,40.00
2023-02-08T17:25:20.963Z,40.00
2023-02-08T17:27:53.764Z,39.60
2023-02-08T17:30:25.269Z,39.90
2023-02-08T17:32:54.982Z,40.00
2023-02-08T17:35:24.863Z,40.10
2023-02-08T17:37:54.064Z,40.40
2023-02-08T17:40:24.303Z,40.70
2023-02-08T17:42:54.518Z,41.30
2023-02-08T17:45:23.634Z,41.60
2023-02-08T17:47:51.636Z,41.10
2023-02-08T17:50:21.070Z,41.50
2023-02-08T17:52:50.587Z,41.80
2023-02-08T17:55:19.984Z,42.10
2023-02-08T17:57:48.825Z,41.50
2023-02-08T18:00:21.670Z,41.20
2023-02-08T18:02:52.184Z,41.10
2023-02-08T18:05:26.160Z,41.10
2023-02-08T18:07:56.317Z,41.30
2023-02-08T18:10:48.578Z,41.60
2023-02-08T18:13:17.271Z,41.80
2023-02-08T18:15:48.544Z,42.00
2023-02-08T18:18:18.150Z,42.20
2023-02-08T18:20:48.145Z,42.50
2023-02-08T18:23:16.128Z,42.30
2023-02-08T18:25:47.440Z,42.50
2023-02-08T18:28:16.944Z,42.00
2023-02-08T18:30:46.443Z,41.90
2023-02-08T18:33:17.248Z,42.00
2023-02-08T18:35:49.403Z,41.80
2023-02-08T18:38:21.613Z,41.40
2023-02-08T18:40:50.376Z,41.60
2023-02-08T18:43:19.366Z,42.90
2023-02-08T18:46:03.604Z,42.30
2023-02-08T18:48:32.220Z,42.20
2023-02-08T18:51:03.590Z,43.30
2023-02-08T18:53:35.231Z,42.80
2023-02-08T18:56:05.908Z,42.90
2023-02-08T18:58:37.154Z,43.30
2023-02-08T19:01:09.411Z,43.40
2023-02-08T19:03:38.982Z,43.50
2023-02-08T19:06:11.255Z,43.60
2023-02-08T19:08:41.771Z,43.50
2023-02-08T19:11:16.453Z,44.20
2023-02-08T19:13:46.789Z,44.80
2023-02-08T19:16:17.286Z,42.50
2023-02-08T19:18:47.175Z,43.50
2023-02-08T19:21:17.528Z,43.30
2023-02-08T19:23:50.599Z,42.50
2023-02-08T19:26:21.791Z,42.60
2023-02-08T19:28:51.342Z,43.30
2023-02-08T19:31:22.069Z,43.00
2023-02-08T19:33:53.816Z,42.50
2023-02-08T19:36:23.583Z,42.70
2023-02-08T19:38:53.952Z,43.30
2023-02-08T19:41:23.939Z,43.70
2023-02-08T19:43:52.131Z,42.20
2023-02-08T19:46:24.288Z,42.50
2023-02-08T19:48:53.834Z,42.80
2023-02-08T19:51:22.387Z,41.30
2023-02-08T19:53:50.528Z,41.50
2023-02-08T19:56:19.975Z,40.20
2023-02-08T19:58:50.646Z,41.80
2023-02-08T20:01:22.724Z,40.50
2023-02-08T20:03:54.108Z,41.70
2023-02-08T20:06:28.036Z,41.20
2023-02-08T20:08:57.661Z,41.60
2023-02-08T20:11:27.881Z,42.90
2023-02-08T20:13:58.714Z,42.70
2023-02-08T20:16:31.909Z,42.40
2023-02-08T20:19:01.288Z,42.50
2023-02-08T20:21:29.973Z,43.00
2023-02-08T20:23:58.003Z,42.70
2023-02-08T20:26:28.805Z,43.00
2023-02-08T20:28:59.312Z,43.10
2023-02-08T20:31:31.982Z,42.80
2023-02-08T20:34:03.849Z,43.30
2023-02-08T20:36:37.597Z,43.80
2023-02-08T20:39:05.871Z,42.70
2023-02-08T20:41:35.922Z,43.20
2023-02-08T20:44:04.600Z,44.10
2023-02-08T20:46:35.937Z,44.10
2023-02-08T20:49:07.197Z,43.50
2023-02-08T20:51:36.101Z,43.50
2023-02-08T20:54:05.001Z,43.50
2023-02-08T20:56:36.014Z,43.20
2023-02-08T20:59:06.485Z,43.50
2023-02-08T21:01:39.085Z,43.80
2023-02-08T21:04:07.183Z,43.70
2023-02-08T21:06:40.290Z,44.00
2023-02-08T21:09:10.954Z,43.80
2023-02-08T21:11:39.704Z,43.90
2023-02-08T21:14:13.520Z,44.60
2023-02-08T21:16:46.105Z,45.00
2023-02-08T21:19:15.706Z,45.40
2023-02-08T21:21:44.415Z,44.90
2023-02-08T21:24:12.937Z,45.50
2023-02-08T21:26:41.460Z,45.60
2023-02-08T21:29:10.047Z,45.20
2023-02-08T21:31:39.113Z,44.80
2023-02-08T21:34:08.752Z,45.00
2023-02-08T21:36:36.838Z,45.30
2023-02-08T21:39:08.672Z,45.50
2023-02-08T21:41:37.127Z,45.20
2023-02-08T21:44:08.460Z,45.10
2023-02-08T21:46:37.206Z,45.50
2023-02-08T21:49:23.269Z,44.80
2023-02-08T21:52:10.389Z,43.80
2023-02-08T21:54:45.454Z,44.80
2023-02-08T21:57:19.284Z,46.80
2023-02-08T21:59:49.454Z,46.60
2023-02-08T22:02:22.110Z,45.70
2023-02-08T22:05:09.450Z,46.40
2023-02-08T22:07:46.374Z,45.20
2023-02-08T22:10:17.325Z,45.20
2023-02-08T22:12:47.060Z,45.40
2023-02-08T22:15:18.231Z,45.70
2023-02-08T22:17:47.629Z,46.10
2023-02-08T22:20:20.716Z,46.30
2023-02-08T22:22:54.857Z,47.60
2023-02-08T22:25:24.205Z,47.90
2023-02-08T22:27:52.517Z,47.10
2023-02-08T22:30:25.088Z,47.40
2023-02-08T22:32:54.318Z,47.70
2023-02-08T22:35:22.401Z,48.10
2023-02-08T22:37:52.872Z,48.40
2023-02-08T22:40:24.498Z,47.60
2023-02-08T22:42:52.961Z,48.40
2023-02-08T22:45:21.140Z,48.10
2023-02-08T22:47:49.638Z,47.80
2023-02-08T22:50:18.277Z,47.90
2023-02-08T22:52:46.747Z,48.10
2023-02-08T22:55:16.826Z,47.70
2023-02-08T22:57:45.884Z,48.40
2023-02-08T23:00:16.284Z,48.80
2023-02-08T23:02:44.709Z,49.20
2023-02-08T23:05:14.156Z,48.80
2023-02-08T23:07:43.728Z,49.00
2023-02-08T23:10:12.733Z,49.30
2023-02-08T23:12:42.521Z,48.90
2023-02-08T23:15:13.768Z,49.40
2023-02-08T23:17:42.900Z,48.90
2023-02-08T23:20:11.876Z,48.90
2023-02-08T23:22:40.736Z,48.60
2023-02-08T23:25:09.049Z,48.80
2023-02-08T23:27:39.140Z,48.80
2023-02-08T23:30:10.277Z,49.00
2023-02-08T23:32:40.612Z,49.40
2023-02-08T23:35:11.331Z,49.50
2023-02-08T23:37:39.902Z,50.20
2023-02-08T23:40:09.745Z,51.00
2023-02-08T23:42:37.779Z,50.10
2023-02-08T23:45:06.701Z,49.70
2023-02-08T23:47:40.742Z,50.60
2023-02-08T23:50:10.996Z,50.60
2023-02-08T23:52:39.851Z,50.40
2023-02-08T23:55:09.740Z,50.10
2023-02-08T23:57:39.182Z,50.10
